Time;durP1;ratioP1;P1;durP2;ratioP2;P2;SDS_P1;SDS_P2;PMS_P1;PMS_P2;Temp;Humidity;BMP_temperature;BMP_pressure;BME280_temperature;BME280_humidity;BME280_pressure;Samples;Min_cycle;Max_cycle;Signal;HPM_P1;HPM_P2
2023/10/04 02:33:50;;;;;;;;;;;;;;;13.00;77.60;101054.63;1086171;54;1786;-82
2023/10/04 02:34:54;;;;;;;;;;;;;;;12.96;77.89;101053.22;1088762;54;965;-81
2023/10/04 02:36:00;;;;;;;;;;;;;;;12.90;77.91;101059.97;1088974;54;986;-81
2023/10/04 02:37:01;;;;;;;;;;;;;;;12.90;78.31;101064.47;1088813;54;932;-82
2023/10/04 02:38:16;;;;;;;;;;;;;;;12.89;78.33;101068.19;1088518;47;951;-80
2023/10/04 02:39:18;;;;;;;;;;;;;;;12.92;78.33;101063.38;1088441;54;991;-80
2023/10/04 02:40:27;;;;;;;;;;;;;;;12.95;77.99;101065.78;1088265;54;993;-81
2023/10/04 02:41:29;;;;;;;;;;;;;;;12.97;78.15;101060.28;1088245;54;973;-81
2023/10/04 02:42:34;;;;;;;;;;;;;;;12.98;78.33;101066.50;1088466;46;947;-81
2023/10/04 02:43:35;;;;;;;;;;;;;;;12.99;78.03;101068.19;1088484;54;1416;-81
2023/10/04 02:44:41;;;;;;;;;;;;;;;13.02;78.05;101062.56;1088415;54;963;-81
2023/10/04 02:45:42;;;;;;;;;;;;;;;13.03;77.68;101065.09;1088198;46;836;-82
2023/10/04 02:46:52;;;;;;;;;;;;;;;13.03;77.59;101069.63;1088427;54;904;-81
2023/10/04 02:47:55;;;;;;;;;;;;;;;13.08;77.56;101067.38;1088299;47;973;-81
2023/10/04 02:49:00;;;;;;;;;;;;;;;13.00;77.77;101069.91;1088492;47;884;-81
2023/10/04 02:50:04;;;;;;;;;;;;;;;12.94;77.80;101071.28;1088613;46;1135;-82
2023/10/04 02:51:08;;;;;;;;;;;;;;;12.88;78.06;101067.31;1088400;54;993;-82
2023/10/04 02:52:11;;;;;;;;;;;;;;;12.83;77.99;101068.69;1088182;54;1879;-81
2023/10/04 02:53:25;;;;;;;;;;;;;;;12.80;78.11;101070.66;1088050;54;1360;-81
2023/10/04 02:54:31;;;;;;;;;;;;;;;12.78;78.12;101080.69;1088289;46;899;-81
2023/10/04 02:55:35;;;;;;;;;;;;;;;12.73;78.52;101076.72;1088507;54;898;-81
2023/10/04 02:56:45;;;;;;;;;;;;;;;12.70;78.44;101072.47;1088293;54;977;-81
2023/10/04 02:58:00;;;;;;;;;;;;;;;12.68;78.60;101070.88;1088339;54;938;-81
2023/10/04 02:59:03;;;;;;;;;;;;;;;12.68;78.80;101077.13;1088267;54;846;-82
2023/10/04 03:00:11;;;;;;;;;;;;;;;12.67;78.81;101074.53;1088367;54;1059;-82
2023/10/04 03:01:24;;;;;;;;;;;;;;;12.63;78.79;101080.19;1088398;47;948;-82
2023/10/04 03:02:27;;;;;;;;;;;;;;;12.62;78.91;101077.63;1088387;54;1064;-80
2023/10/04 03:03:38;;;;;;;;;;;;;;;12.57;79.06;101075.34;1088261;47;1389;-81
2023/10/04 03:04:41;;;;;;;;;;;;;;;12.56;79.07;101078.16;1088283;47;897;-81
2023/10/04 03:05:47;;;;;;;;;;;;;;;12.53;79.51;101081.09;1088377;54;959;-82
2023/10/04 03:06:48;;;;;;;;;;;;;;;12.52;79.28;101080.28;1088403;46;962;-81
2023/10/04 03:07:54;;;;;;;;;;;;;;;12.55;79.06;101080.00;1088366;54;884;-82
2023/10/04 03:08:57;;;;;;;;;;;;;;;12.57;78.96;101079.88;1088445;54;1086;-81
2023/10/04 03:09:58;;;;;;;;;;;;;;;12.54;79.31;101078.31;1088321;54;973;-81
2023/10/04 03:11:03;;;;;;;;;;;;;;;12.55;79.43;101076.47;1088404;54;936;-82
2023/10/04 03:12:12;;;;;;;;;;;;;;;12.52;79.23;101082.94;1088432;46;1906;-81
2023/10/04 03:13:22;;;;;;;;;;;;;;;12.53;79.50;101078.41;1088282;54;1338;-82
2023/10/04 03:14:25;;;;;;;;;;;;;;;12.56;79.38;101071.00;1088453;54;960;-81
2023/10/04 03:15:27;;;;;;;;;;;;;;;12.53;79.41;101073.94;1088482;54;967;-83
2023/10/04 03:16:54;;;;;;;;;;;;;;;12.50;79.62;101078.72;1088389;54;1082;-82
2023/10/04 03:18:20;;;;;;;;;;;;;;;12.51;79.58;101078.56;1088418;54;924;-81
2023/10/04 03:19:25;;;;;;;;;;;;;;;12.50;79.27;101079.53;1088345;54;980;-82
2023/10/04 03:20:30;;;;;;;;;;;;;;;12.48;79.47;101073.47;1088511;54;955;-81
2023/10/04 03:21:38;;;;;;;;;;;;;;;12.46;79.60;101080.81;1088472;47;954;-81
2023/10/04 03:22:42;;;;;;;;;;;;;;;12.42;79.84;101076.69;1088391;47;951;-82
2023/10/04 03:23:45;;;;;;;;;;;;;;;12.40;80.14;101082.19;1088262;54;1172;-82
2023/10/04 03:24:48;;;;;;;;;;;;;;;12.38;80.11;101075.22;1088169;47;1230;-81
2023/10/04 03:25:51;;;;;;;;;;;;;;;12.39;79.89;101076.94;1088433;54;975;-81
2023/10/04 03:27:11;;;;;;;;;;;;;;;12.42;80.21;101076.69;1088480;46;955;-81
2023/10/04 03:28:15;;;;;;;;;;;;;;;12.34;80.41;101080.00;1088321;54;917;-80
2023/10/04 03:29:28;;;;;;;;;;;;;;;12.36;80.04;101078.03;1088285;47;974;-81
2023/10/04 03:30:31;;;;;;;;;;;;;;;12.35;80.15;101078.19;1088236;54;896;-81
2023/10/04 03:31:36;;;;;;;;;;;;;;;12.30;80.18;101078.59;1088315;54;936;-82
2023/10/04 03:32:36;;;;;;;;;;;;;;;12.29;80.56;101076.88;1088102;54;1036;-82
2023/10/04 03:33:38;;;;;;;;;;;;;;;12.30;80.60;101083.94;1088277;54;1271;-81
2023/10/04 03:34:42;;;;;;;;;;;;;;;12.28;80.51;101084.06;1087501;54;1393;-82
2023/10/04 03:35:48;;;;;;;;;;;;;;;12.38;80.26;101088.63;1088175;54;960;-81
2023/10/04 03:37:08;;;;;;;;;;;;;;;12.41;80.25;101080.34;1088308;54;917;-82
2023/10/04 03:38:10;;;;;;;;;;;;;;;12.43;80.04;101086.44;1088266;54;1023;-81
2023/10/04 03:39:12;;;;;;;;;;;;;;;12.44;80.58;101083.59;1088256;54;904;-80
2023/10/04 03:40:18;;;;;;;;;;;;;;;12.48;80.10;101076.13;1088288;47;965;-81
2023/10/04 03:41:19;;;;;;;;;;;;;;;12.51;79.76;101073.19;1088331;54;1043;-81
2023/10/04 03:42:29;;;;;;;;;;;;;;;12.52;79.44;101074.03;1088319;54;1041;-82
2023/10/04 03:43:36;;;;;;;;;;;;;;;12.47;79.83;101080.66;1088213;54;1387;-81
2023/10/04 03:44:40;;;;;;;;;;;;;;;12.42;79.64;101082.03;1087985;54;1031;-81
2023/10/04 03:45:41;;;;;;;;;;;;;;;12.35;80.18;101083.56;1088203;54;999;-80
2023/10/04 03:46:44;;;;;;;;;;;;;;;12.31;80.08;101075.75;1088249;54;921;-82
2023/10/04 03:47:54;;;;;;;;;;;;;;;12.31;80.19;101078.44;1088214;54;1105;-81
2023/10/04 03:48:58;;;;;;;;;;;;;;;12.35;80.04;101083.56;1088315;54;852;-81
2023/10/04 03:49:59;;;;;;;;;;;;;;;12.32;79.85;101074.78;1088345;54;973;-81
2023/10/04 03:51:02;;;;;;;;;;;;;;;12.31;80.12;101080.28;1088308;54;955;-81
2023/10/04 03:52:05;;;;;;;;;;;;;;;12.29;79.94;101083.06;1088423;47;1860;-81
2023/10/04 03:53:09;;;;;;;;;;;;;;;12.28;80.12;101078.69;1088168;54;1292;-82
2023/10/04 03:54:12;;;;;;;;;;;;;;;12.28;80.06;101078.69;1088529;46;994;-80
2023/10/04 03:55:14;;;;;;;;;;;;;;;12.27;80.03;101079.69;1088247;54;966;-81
2023/10/04 03:56:20;;;;;;;;;;;;;;;12.26;79.90;101080.69;1088275;54;1001;-82
2023/10/04 03:57:22;;;;;;;;;;;;;;;12.23;80.24;101088.13;1088266;54;979;-81
2023/10/04 03:58:26;;;;;;;;;;;;;;;12.22;80.25;101081.06;1088189;47;987;-81
2023/10/04 03:59:26;;;;;;;;;;;;;;;12.16;80.10;101088.63;1088368;54;974;-80
2023/10/04 04:00:33;;;;;;;;;;;;;;;12.12;80.56;101080.97;1088230;54;899;-81
2023/10/04 04:01:37;;;;;;;;;;;;;;;12.10;80.47;101085.63;1088348;47;1350;-81
2023/10/04 04:02:41;;;;;;;;;;;;;;;12.09;80.41;101086.63;1088335;54;943;-82
2023/10/04 04:03:43;;;;;;;;;;;;;;;11.98;81.04;101085.69;1088180;47;1384;-81
2023/10/04 04:04:49;;;;;;;;;;;;;;;11.94;81.14;101084.19;1088331;54;998;-82
2023/10/04 04:05:50;;;;;;;;;;;;;;;11.94;81.33;101078.84;1088244;54;919;-82
2023/10/04 04:06:54;;;;;;;;;;;;;;;11.91;81.38;101084.44;1088262;54;1055;-81
2023/10/04 04:07:58;;;;;;;;;;;;;;;11.88;81.36;101082.03;1088159;54;1017;-81
2023/10/04 04:09:06;;;;;;;;;;;;;;;11.86;81.49;101084.00;1088278;47;954;-80
2023/10/04 04:10:08;;;;;;;;;;;;;;;11.84;81.49;101077.91;1088268;54;1005;-81
2023/10/04 04:11:14;;;;;;;;;;;;;;;11.87;81.46;101083.03;1088154;54;960;-81
2023/10/04 04:12:16;;;;;;;;;;;;;;;11.86;81.53;101089.34;1088243;54;1848;-81
2023/10/04 04:13:23;;;;;;;;;;;;;;;11.87;81.67;101083.03;1088102;54;1315;-81
2023/10/04 04:14:31;;;;;;;;;;;;;;;11.87;81.43;101091.06;1088206;54;965;-81
2023/10/04 04:15:36;;;;;;;;;;;;;;;11.89;81.35;101083.75;1088299;54;943;-80
2023/10/04 04:16:43;;;;;;;;;;;;;;;11.86;81.77;101092.03;1088322;54;880;-79
2023/10/04 04:17:46;;;;;;;;;;;;;;;11.83;81.68;101086.91;1088444;54;978;-81
2023/10/04 04:18:55;;;;;;;;;;;;;;;11.86;81.49;101089.34;1088307;46;971;-82
2023/10/04 04:20:03;;;;;;;;;;;;;;;11.85;81.83;101084.97;1088237;54;913;-81
2023/10/04 04:21:05;;;;;;;;;;;;;;;11.84;81.46;101085.94;1088194;54;983;-81
2023/10/04 04:22:08;;;;;;;;;;;;;;;11.86;81.85;101092.88;1088235;54;989;-81
2023/10/04 04:23:22;;;;;;;;;;;;;;;11.89;81.22;101085.56;1088178;54;1409;-81
2023/10/04 04:24:36;;;;;;;;;;;;;;;11.92;81.18;101094.19;1088324;54;958;-81
2023/10/04 04:25:39;;;;;;;;;;;;;;;11.91;81.33;101087.13;1088328;47;945;-81
2023/10/04 04:26:42;;;;;;;;;;;;;;;11.98;81.26;101080.34;1088260;54;919;-81
2023/10/04 04:27:45;;;;;;;;;;;;;;;12.02;81.06;101087.13;1088074;54;931;-81
2023/10/04 04:28:51;;;;;;;;;;;;;;;12.07;80.87;101094.78;1088070;46;951;-81
2023/10/04 04:29:53;;;;;;;;;;;;;;;12.12;80.59;101091.69;1088298;54;960;-80
2023/10/04 04:30:53;;;;;;;;;;;;;;;12.16;80.59;101088.63;1088112;54;945;-81
2023/10/04 04:31:58;;;;;;;;;;;;;;;12.21;80.33;101090.94;1088295;54;977;-81
2023/10/04 04:33:03;;;;;;;;;;;;;;;12.15;80.09;101086.09;1088108;47;1277;-81
2023/10/04 04:34:18;;;;;;;;;;;;;;;12.12;80.25;101087.22;1088256;47;998;-81
2023/10/04 04:35:30;;;;;;;;;;;;;;;12.09;80.02;101092.81;1087523;54;1085;-82
2023/10/04 04:36:34;;;;;;;;;;;;;;;12.07;80.02;101093.94;1088247;54;978;-81
2023/10/04 04:37:44;;;;;;;;;;;;;;;12.05;80.31;101087.84;1088163;54;883;-81
2023/10/04 04:38:51;;;;;;;;;;;;;;;11.98;80.08;101087.50;1088309;54;1156;-81
2023/10/04 04:39:54;;;;;;;;;;;;;;;11.94;80.33;101089.56;1088122;54;963;-80
2023/10/04 04:40:58;;;;;;;;;;;;;;;11.90;80.41;101090.81;1088132;47;956;-82
2023/10/04 04:42:00;;;;;;;;;;;;;;;11.84;80.79;101085.94;1088198;54;951;-80
2023/10/04 04:43:18;;;;;;;;;;;;;;;11.82;80.64;101085.22;1088188;54;1320;-82
2023/10/04 04:44:29;;;;;;;;;;;;;;;11.83;80.72;101085.13;1088229;54;1278;-82
2023/10/04 04:45:31;;;;;;;;;;;;;;;11.79;81.01;101085.50;1088231;47;931;-81
2023/10/04 04:46:38;;;;;;;;;;;;;;;11.81;80.75;101095.09;1088150;54;928;-80
2023/10/04 04:47:42;;;;;;;;;;;;;;;11.85;80.69;101082.28;1088194;47;953;-80
2023/10/04 04:48:46;;;;;;;;;;;;;;;11.88;80.58;101087.41;1088278;47;939;-81
2023/10/04 04:49:48;;;;;;;;;;;;;;;11.94;80.61;101086.88;1088282;54;973;-80
2023/10/04 04:50:49;;;;;;;;;;;;;;;11.93;80.45;101085.19;1088148;54;924;-79
2023/10/04 04:51:53;;;;;;;;;;;;;;;11.98;80.48;101083.00;1088030;54;991;-81
2023/10/04 04:52:53;;;;;;;;;;;;;;;12.01;80.03;101085.41;1088032;47;1871;-81
2023/10/04 04:54:00;;;;;;;;;;;;;;;12.06;80.11;101086.88;1088197;54;1040;-81
2023/10/04 04:55:00;;;;;;;;;;;;;;;12.08;79.73;101085.75;1088167;54;966;-81
2023/10/04 04:56:06;;;;;;;;;;;;;;;12.13;79.67;101096.09;1088411;47;936;-83
2023/10/04 04:57:07;;;;;;;;;;;;;;;12.16;79.32;101091.31;1088398;47;1029;-81
2023/10/04 04:58:13;;;;;;;;;;;;;;;12.21;79.13;101096.28;1088603;46;878;-82
2023/10/04 04:59:14;;;;;;;;;;;;;;;12.24;78.93;101100.53;1088445;54;1006;-82
2023/10/04 05:00:42;;;;;;;;;;;;;;;12.15;79.37;101091.47;1088789;54;1046;-82
2023/10/04 05:01:44;;;;;;;;;;;;;;;12.08;79.38;101096.47;1088681;54;964;-81
2023/10/04 05:02:48;;;;;;;;;;;;;;;12.02;79.78;101095.16;1088541;54;1124;-81
2023/10/04 05:03:51;;;;;;;;;;;;;;;11.94;79.81;101094.91;1088580;54;1373;-81
2023/10/04 05:04:57;;;;;;;;;;;;;;;11.84;80.10;101093.97;1088472;54;946;-81
2023/10/04 05:05:58;;;;;;;;;;;;;;;11.80;80.53;101093.38;1088327;46;1008;-80
2023/10/04 05:07:03;;;;;;;;;;;;;;;11.77;80.53;101093.63;1088672;46;1012;-81
2023/10/04 05:08:10;;;;;;;;;;;;;;;11.79;80.71;101088.16;1088423;54;993;-81
2023/10/04 05:09:17;;;;;;;;;;;;;;;11.71;81.00;101092.31;1088181;47;911;-80
2023/10/04 05:10:18;;;;;;;;;;;;;;;11.64;81.24;101098.31;1088474;54;923;-82
2023/10/04 05:11:23;;;;;;;;;;;;;;;11.67;81.17;101093.56;1088387;54;956;-81
2023/10/04 05:12:24;;;;;;;;;;;;;;;11.76;80.63;101091.09;1088455;54;1864;-80
2023/10/04 05:13:28;;;;;;;;;;;;;;;11.68;80.99;101095.25;1088253;54;1421;-81
2023/10/04 05:14:29;;;;;;;;;;;;;;;11.71;80.80;101089.63;1088600;46;966;-81
2023/10/04 05:15:37;;;;;;;;;;;;;;;11.78;80.81;101097.19;1088493;54;901;-82
2023/10/04 05:16:38;;;;;;;;;;;;;;;11.84;80.64;101083.28;1088213;54;963;-81
2023/10/04 05:17:50;;;;;;;;;;;;;;;11.87;80.67;101088.38;1088551;54;961;-81
2023/10/04 05:18:51;;;;;;;;;;;;;;;11.83;80.69;101086.91;1088428;54;970;-83
2023/10/04 05:19:57;;;;;;;;;;;;;;;11.79;80.56;101086.31;1088551;54;980;-80
2023/10/04 05:21:00;;;;;;;;;;;;;;;11.79;80.76;101096.22;1088748;54;983;-81
2023/10/04 05:22:03;;;;;;;;;;;;;;;11.79;80.68;101091.69;1088429;54;878;-81
2023/10/04 05:23:09;;;;;;;;;;;;;;;11.78;80.56;101094.50;1088375;54;1327;-82
2023/10/04 05:24:12;;;;;;;;;;;;;;;11.77;80.55;101098.16;1088564;54;856;-81
2023/10/04 05:25:16;;;;;;;;;;;;;;;11.75;80.75;101095.63;1088373;47;967;-82
2023/10/04 05:26:19;;;;;;;;;;;;;;;11.72;80.78;101095.84;1088817;54;880;-81
2023/10/04 05:27:29;;;;;;;;;;;;;;;11.64;81.26;101095.66;1088560;47;841;-81
2023/10/04 05:28:30;;;;;;;;;;;;;;;11.58;81.23;101088.97;1088428;46;934;-81
2023/10/04 05:29:34;;;;;;;;;;;;;;;11.58;81.52;101104.16;1088283;54;1016;-82
2023/10/04 05:30:39;;;;;;;;;;;;;;;11.53;81.81;101097.38;1088232;54;910;-81
2023/10/04 05:31:43;;;;;;;;;;;;;;;11.52;81.74;101103.69;1088372;54;959;-81
2023/10/04 05:32:53;;;;;;;;;;;;;;;11.46;81.95;101103.34;1088496;47;1900;-85
2023/10/04 05:33:59;;;;;;;;;;;;;;;11.48;82.17;101110.28;1088451;47;938;-82
2023/10/04 05:35:00;;;;;;;;;;;;;;;11.44;82.08;101102.59;1088435;54;993;-81
2023/10/04 05:36:03;;;;;;;;;;;;;;;11.44;82.17;101106.16;1088059;54;1205;-83
2023/10/04 05:37:04;;;;;;;;;;;;;;;11.42;82.29;101105.41;1088347;46;940;-81
2023/10/04 05:38:11;;;;;;;;;;;;;;;11.38;82.44;101099.47;1088309;54;1012;-82
2023/10/04 05:39:14;;;;;;;;;;;;;;;11.39;82.52;101101.16;1088414;54;902;-79
2023/10/04 05:40:37;;;;;;;;;;;;;;;11.36;82.61;101105.94;1088351;46;1590;-81
2023/10/04 05:41:42;;;;;;;;;;;;;;;11.32;82.81;101107.13;1088379;54;938;-81
2023/10/04 05:42:54;;;;;;;;;;;;;;;11.32;82.87;101104.47;1088656;47;1048;-84
2023/10/04 05:44:11;;;;;;;;;;;;;;;11.31;82.68;101108.09;1088961;46;1439;-82
2023/10/04 05:46:34;;;;;;;;;;;;;;;11.27;83.43;101109.34;1088750;47;1467;-82
2023/10/04 05:47:53;;;;;;;;;;;;;;;;;;;;;
2023/10/04 05:49:18;;;;;;;;;;;;;;;11.28;83.24;101111.06;1088376;47;1036;-84
2023/10/04 05:50:22;;;;;;;;;;;;;;;11.26;83.46;101116.50;1088620;47;1527;-82
2023/10/04 05:53:29;;;;;;;;;;;;;;;11.22;83.26;101121.25;1088500;47;1856;-81
2023/10/04 05:54:30;;;;;;;;;;;;;;;11.19;83.46;101109.94;1088520;47;1128;-80
2023/10/04 05:55:56;;;;;;;;;;;;;;;11.18;83.23;101101.09;1088415;47;1429;-81
2023/10/04 05:57:15;;;;;;;;;;;;;;;11.20;83.57;101111.66;1088418;47;977;-81
2023/10/04 05:58:38;;;;;;;;;;;;;;;11.20;83.27;101111.66;1088548;47;1456;-81
2023/10/04 05:59:54;;;;;;;;;;;;;;;11.18;83.36;101109.13;1088752;46;1483;-82
2023/10/04 06:02:34;;;;;;;;;;;;;;;11.20;83.74;101109.81;1088521;47;1473;-82
2023/10/04 06:03:35;;;;;;;;;;;;;;;11.26;83.14;101121.88;1088710;54;1389;-84
2023/10/04 06:04:44;;;;;;;;;;;;;;;11.23;83.15;101114.94;1088782;46;1431;-80
2023/10/04 06:05:50;;;;;;;;;;;;;;;11.28;83.13;101116.41;1088689;47;1629;-81
2023/10/04 06:07:07;;;;;;;;;;;;;;;11.35;82.92;101118.44;1088597;47;1437;-81
2023/10/04 06:08:39;;;;;;;;;;;;;;;11.35;83.08;101113.09;1088202;47;1501;-81
2023/10/04 06:10:11;;;;;;;;;;;;;;;11.41;83.03;101116.25;1088715;46;1245;-82
2023/10/04 06:11:12;;;;;;;;;;;;;;;11.47;82.43;101113.09;1088769;46;1381;-82
2023/10/04 06:13:59;;;;;;;;;;;;;;;11.57;82.35;101113.19;1088811;46;1309;-82
2023/10/04 06:15:00;;;;;;;;;;;;;;;11.63;81.93;101116.19;1088207;47;925;-80
2023/10/04 06:17:28;;;;;;;;;;;;;;;11.70;81.82;101125.47;1088720;46;907;-80
2023/10/04 06:18:34;;;;;;;;;;;;;;;11.78;81.62;101118.63;1088472;47;951;-81
2023/10/04 06:19:47;;;;;;;;;;;;;;;11.83;81.37;101124.44;1088549;54;856;-82
2023/10/04 06:20:52;;;;;;;;;;;;;;;11.89;81.11;101123.94;1088483;46;984;-81
2023/10/04 06:22:22;;;;;;;;;;;;;;;11.91;80.82;101124.63;1088469;46;939;-82
2023/10/04 06:23:45;;;;;;;;;;;;;;;;;;;;;
2023/10/04 06:25:20;;;;;;;;;;;;;;;;;;;;;
2023/10/04 06:32:50;;;;;;;;;;;;;;;12.31;79.92;101128.53;1088609;46;1868;-82
2023/10/04 06:34:02;;;;;;;;;;;;;;;12.37;79.41;101144.09;1088282;54;974;-81
2023/10/04 06:35:06;;;;;;;;;;;;;;;12.44;79.12;101136.41;1088568;54;881;-83
2023/10/04 06:36:08;;;;;;;;;;;;;;;12.51;79.21;101142.94;1088430;54;1186;-83
2023/10/04 06:37:17;;;;;;;;;;;;;;;12.54;78.10;101145.38;1088409;54;898;-80
2023/10/04 06:38:18;;;;;;;;;;;;;;;12.55;78.69;101139.03;1088406;47;998;-82
2023/10/04 06:39:22;;;;;;;;;;;;;;;12.62;78.40;101131.28;1088479;54;964;-82
2023/10/04 06:40:31;;;;;;;;;;;;;;;12.66;78.37;101134.56;1088542;47;933;-82
2023/10/04 06:41:43;;;;;;;;;;;;;;;12.70;78.00;101136.84;1088537;54;960;-82
2023/10/04 06:42:49;;;;;;;;;;;;;;;12.71;78.18;101135.00;1088528;54;908;-83
2023/10/04 06:43:53;;;;;;;;;;;;;;;12.70;78.34;101149.41;1088542;54;837;-83
2023/10/04 06:44:54;;;;;;;;;;;;;;;12.74;78.17;101140.97;1088504;54;912;-82
2023/10/04 06:45:57;;;;;;;;;;;;;;;12.83;77.69;101150.06;1088568;46;986;-83
2023/10/04 06:47:00;;;;;;;;;;;;;;;12.86;77.96;101147.09;1088492;47;991;-82
2023/10/04 06:48:07;;;;;;;;;;;;;;;12.91;77.41;101152.94;1088399;54;971;-82
2023/10/04 06:49:08;;;;;;;;;;;;;;;12.90;77.10;101156.59;1088510;54;925;-81
2023/10/04 06:50:21;;;;;;;;;;;;;;;12.97;77.35;101156.03;1088550;54;994;-81
2023/10/04 06:51:46;;;;;;;;;;;;;;;12.95;77.35;101159.72;1088382;54;983;-84
2023/10/04 06:52:50;;;;;;;;;;;;;;;12.82;77.49;101155.53;1088543;46;939;-81
2023/10/04 06:53:51;;;;;;;;;;;;;;;12.79;77.36;101164.72;1088404;47;1464;-81
2023/10/04 06:55:00;;;;;;;;;;;;;;;12.77;77.31;101153.25;1088467;54;922;-80
2023/10/04 06:56:03;;;;;;;;;;;;;;;12.81;76.92;101154.69;1088509;54;1076;-83
2023/10/04 07:00:18;;;;;;;;;;;;;;;12.72;77.52;101158.19;1088545;46;821;-81
2023/10/04 07:01:19;;;;;;;;;;;;;;;12.69;77.96;101161.13;1088328;47;934;-83
2023/10/04 07:02:20;;;;;;;;;;;;;;;12.70;77.31;101161.00;1088415;54;995;-81
2023/10/04 07:03:27;;;;;;;;;;;;;;;12.78;77.38;101163.88;1088441;54;1392;-83
2023/10/04 07:04:27;;;;;;;;;;;;;;;12.89;77.05;101154.88;1088425;47;935;-82
2023/10/04 07:05:35;;;;;;;;;;;;;;;12.96;76.91;101157.91;1088380;54;997;-82
2023/10/04 07:06:36;;;;;;;;;;;;;;;12.96;76.60;101155.22;1088467;54;960;-83
2023/10/04 07:07:37;;;;;;;;;;;;;;;12.98;76.84;101157.75;1088561;54;1008;-83
2023/10/04 07:08:58;;;;;;;;;;;;;;;12.97;76.89;101161.41;1088514;46;895;-82
2023/10/04 07:09:59;;;;;;;;;;;;;;;12.98;76.50;101163.13;1088552;54;928;-83
2023/10/04 07:11:04;;;;;;;;;;;;;;;13.00;76.75;101162.00;1088515;54;1015;-82
2023/10/04 07:12:07;;;;;;;;;;;;;;;12.92;76.74;101159.13;1088519;54;942;-83
2023/10/04 07:13:11;;;;;;;;;;;;;;;12.95;76.92;101165.09;1087900;47;1858;-82
2023/10/04 07:14:18;;;;;;;;;;;;;;;12.98;76.60;101163.13;1088465;54;979;-81
2023/10/04 07:15:24;;;;;;;;;;;;;;;13.02;76.71;101165.41;1088553;47;1092;-81
2023/10/04 07:16:28;;;;;;;;;;;;;;;12.97;76.35;101170.34;1088521;54;1023;-82
2023/10/04 07:17:36;;;;;;;;;;;;;;;12.99;76.49;101172.88;1088405;54;1060;-82
2023/10/04 07:18:39;;;;;;;;;;;;;;;13.01;76.49;101169.06;1088412;54;940;-81
2023/10/04 07:19:43;;;;;;;;;;;;;;;12.95;76.36;101181.19;1088300;54;944;-80
2023/10/04 07:20:44;;;;;;;;;;;;;;;12.91;76.54;101173.53;1088489;54;1134;-81
2023/10/04 07:21:47;;;;;;;;;;;;;;;12.94;76.25;101179.47;1088711;47;1393;-80
2023/10/04 07:22:58;;;;;;;;;;;;;;;12.94;76.24;101174.09;1088456;47;967;-79
2023/10/04 07:24:01;;;;;;;;;;;;;;;13.07;76.19;101173.91;1088576;54;987;-80
2023/10/04 07:25:07;;;;;;;;;;;;;;;13.01;75.95;101178.97;1088510;54;1025;-81
2023/10/04 07:26:10;;;;;;;;;;;;;;;13.01;76.21;101174.44;1088544;54;901;-82
2023/10/04 07:27:16;;;;;;;;;;;;;;;13.03;76.02;101175.16;1088560;46;883;-83
2023/10/04 07:31:21;;;;;;;;;;;;;;;13.14;75.81;101187.63;1088778;47;785;-83
2023/10/04 07:32:34;;;;;;;;;;;;;;;13.19;75.36;101180.06;1088690;47;1019;-80
2023/10/04 07:33:37;;;;;;;;;;;;;;;13.14;75.29;101182.25;1088457;47;1852;-81
2023/10/04 07:34:42;;;;;;;;;;;;;;;13.18;74.94;101180.16;1088443;54;972;-81
2023/10/04 07:35:45;;;;;;;;;;;;;;;13.22;75.19;101181.59;1088742;46;928;-81
2023/10/04 07:36:46;;;;;;;;;;;;;;;13.27;75.19;101179.38;1087938;54;1129;-82
2023/10/04 07:40:31;;;;;;;;;;;;;;;13.35;74.86;101189.44;1088570;54;915;-80
2023/10/04 07:43:01;;;;;;;;;;;;;;;13.37;74.42;101187.47;1088640;54;1237;-83
2023/10/04 07:45:35;;;;;;;;;;;;;;;13.55;73.86;101198.47;1088654;47;830;-79
2023/10/04 07:46:36;;;;;;;;;;;;;;;13.55;74.02;101188.56;1088725;54;1015;-79
2023/10/04 07:49:10;;;;;;;;;;;;;;;13.56;73.22;101187.56;1088560;46;844;-80
2023/10/04 07:50:15;;;;;;;;;;;;;;;13.54;73.50;101194.91;1088643;54;993;-81
2023/10/04 07:51:18;;;;;;;;;;;;;;;13.59;73.34;101186.44;1088352;47;920;-82
2023/10/04 07:52:35;;;;;;;;;;;;;;;13.64;72.98;101192.28;1088194;47;971;-83
2023/10/04 07:53:42;;;;;;;;;;;;;;;13.74;72.66;101192.28;1088195;47;1836;-81
2023/10/04 07:54:54;;;;;;;;;;;;;;;13.73;72.74;101193.28;1088284;54;1024;-79
2023/10/04 07:55:57;;;;;;;;;;;;;;;13.76;72.60;101184.94;1088238;54;1035;-81
2023/10/04 07:57:03;;;;;;;;;;;;;;;13.82;72.15;101195.13;1088117;54;1003;-80
2023/10/04 07:58:12;;;;;;;;;;;;;;;13.82;72.33;101187.06;1088383;54;936;-82
2023/10/04 07:59:12;;;;;;;;;;;;;;;13.85;71.85;101180.56;1088721;54;986;-82
2023/10/04 08:00:14;;;;;;;;;;;;;;;13.93;71.95;101182.56;1088480;54;1011;-81
2023/10/04 08:01:18;;;;;;;;;;;;;;;13.99;71.59;101187.38;1088233;54;967;-83
2023/10/04 08:03:52;;;;;;;;;;;;;;;14.11;71.26;101182.75;1088247;47;1344;-81
2023/10/04 08:04:56;;;;;;;;;;;;;;;14.23;71.02;101186.13;1088194;54;961;-81
2023/10/04 08:06:09;;;;;;;;;;;;;;;14.22;70.79;101189.81;1088284;54;1112;-81
2023/10/04 08:07:15;;;;;;;;;;;;;;;14.29;70.71;101180.19;1088311;54;1071;-83
2023/10/04 08:08:18;;;;;;;;;;;;;;;14.40;69.97;101188.13;1088058;54;1019;-82
2023/10/04 08:09:21;;;;;;;;;;;;;;;14.65;69.31;101184.00;1087589;54;1043;-80
2023/10/04 08:10:29;;;;;;;;;;;;;;;14.85;68.98;101191.19;1087873;47;1147;-81
2023/10/04 08:11:33;;;;;;;;;;;;;;;14.95;68.75;101183.94;1087585;54;1079;-82
2023/10/04 08:12:41;;;;;;;;;;;;;;;15.18;68.21;101186.31;1087837;54;1519;-80
2023/10/04 08:13:46;;;;;;;;;;;;;;;15.25;67.82;101182.00;1088041;54;1856;-81
2023/10/04 08:14:47;;;;;;;;;;;;;;;15.34;67.73;101186.50;1088068;47;960;-81
2023/10/04 08:16:05;;;;;;;;;;;;;;;15.41;67.12;101179.53;1088139;54;959;-82
2023/10/04 08:17:06;;;;;;;;;;;;;;;15.43;66.39;101182.09;1088173;54;888;-80
2023/10/04 08:18:16;;;;;;;;;;;;;;;15.48;65.97;101178.94;1088252;54;1055;-80
2023/10/04 08:19:20;;;;;;;;;;;;;;;15.48;65.44;101179.78;1087949;54;1012;-81
2023/10/04 08:34:24;;;;;;;;;;;;;;;16.87;61.59;101146.19;1087887;54;1224;-81
2023/10/04 08:35:34;;;;;;;;;;;;;;;17.05;61.44;101151.56;1088255;47;1013;-80
2023/10/04 08:36:43;;;;;;;;;;;;;;;17.17;61.23;101154.84;1088230;54;1035;-80
2023/10/04 08:37:59;;;;;;;;;;;;;;;17.41;60.71;101162.22;1088537;54;942;-82
2023/10/04 08:39:10;;;;;;;;;;;;;;;17.50;60.50;101163.06;1088234;47;991;-81
2023/10/04 08:40:11;;;;;;;;;;;;;;;17.54;59.62;101161.75;1088556;54;856;-81
2023/10/04 08:41:20;;;;;;;;;;;;;;;17.74;59.24;101158.78;1088238;47;1086;-81
2023/10/04 08:42:23;;;;;;;;;;;;;;;17.77;58.69;101153.88;1088327;54;1086;-81
2023/10/04 08:43:24;;;;;;;;;;;;;;;18.02;58.70;101161.22;1087945;47;1274;-79
2023/10/04 08:44:33;;;;;;;;;;;;;;;18.06;58.38;101154.47;1087807;47;1110;-82
2023/10/04 08:45:34;;;;;;;;;;;;;;;18.36;57.85;101150.28;1088124;54;895;-81
2023/10/04 08:46:40;;;;;;;;;;;;;;;18.33;57.19;101153.31;1088012;54;1093;-80
2023/10/04 08:47:50;;;;;;;;;;;;;;;18.48;57.24;101147.19;1088573;54;1008;-81
2023/10/04 08:49:00;;;;;;;;;;;;;;;18.31;56.49;101147.22;1088242;54;983;-82
2023/10/04 08:50:15;;;;;;;;;;;;;;;18.29;57.30;101151.09;1088561;54;1003;-82
2023/10/04 08:51:33;;;;;;;;;;;;;;;18.36;56.49;101157.53;1088483;54;1105;-82
2023/10/04 08:52:35;;;;;;;;;;;;;;;18.51;56.41;101150.44;1088204;47;935;-82
2023/10/04 08:55:16;;;;;;;;;;;;;;;18.55;56.15;101145.53;1087971;47;1445;-81
2023/10/04 08:56:20;;;;;;;;;;;;;;;18.41;55.65;101155.19;1088207;54;1023;-81
2023/10/04 08:57:24;;;;;;;;;;;;;;;18.42;55.72;101145.19;1088062;54;945;-81
2023/10/04 08:58:28;;;;;;;;;;;;;;;18.46;56.42;101147.38;1088133;54;1083;-83
2023/10/04 08:59:40;;;;;;;;;;;;;;;18.59;56.15;101140.59;1088243;54;1078;-82
2023/10/04 09:00:43;;;;;;;;;;;;;;;18.78;55.83;101137.53;1087205;47;1031;-80
2023/10/04 09:01:50;;;;;;;;;;;;;;;18.98;55.24;101132.59;1087177;54;1134;-81
2023/10/04 09:02:55;;;;;;;;;;;;;;;19.00;55.13;101132.41;1087884;54;1381;-82
2023/10/04 09:04:02;;;;;;;;;;;;;;;18.83;55.13;101140.56;1087923;54;1031;-81
2023/10/04 09:05:10;;;;;;;;;;;;;;;19.08;54.85;101135.09;1088257;47;1189;-83
2023/10/04 09:06:17;;;;;;;;;;;;;;;19.20;54.62;101134.72;1088350;47;1230;-82
2023/10/04 09:07:31;;;;;;;;;;;;;;;19.12;54.36;101131.03;1088267;54;1012;-81